createdAt,value
2018-12-16T00:05:23.912Z,1.98
2018-12-16T00:11:18.924Z,2.57
2018-12-16T00:17:13.914Z,2.58
2018-12-16T00:23:08.926Z,3.25
2018-12-16T00:29:03.917Z,2.62
2018-12-16T00:34:58.941Z,2.23
2018-12-16T00:40:53.924Z,2.39
2018-12-16T00:46:48.940Z,3.5
2018-12-16T00:52:43.902Z,2.93
2018-12-16T00:58:38.940Z,2.94
2018-12-16T01:04:33.914Z,2.96
2018-12-16T01:10:28.960Z,2.69
2018-12-16T01:16:23.922Z,1.83
2018-12-16T01:22:18.922Z,2.41
2018-12-16T01:28:13.936Z,2.54
2018-12-16T01:34:08.943Z,3.03
2018-12-16T01:40:03.959Z,2.13
2018-12-16T01:45:58.993Z,2.57
2018-12-16T01:51:53.941Z,1.8
2018-12-16T01:57:48.994Z,2.89
2018-12-16T02:03:43.937Z,5.52
2018-12-16T02:09:38.984Z,5.31
2018-12-16T02:15:33.954Z,3.53
2018-12-16T02:21:28.942Z,2.37
2018-12-16T02:27:23.971Z,6.42
2018-12-16T02:33:18.928Z,3.23
2018-12-16T02:39:13.987Z,4.33
2018-12-16T02:45:08.936Z,7.02
2018-12-16T02:51:03.959Z,3.53
2018-12-16T02:56:58.952Z,4.01
2018-12-16T03:02:53.958Z,5.28
2018-12-16T03:08:48.975Z,2.82
2018-12-16T03:14:43.961Z,4.38
2018-12-16T03:20:38.950Z,3.51
2018-12-16T03:26:35.982Z,3.1
2018-12-16T03:32:28.989Z,3.22
2018-12-16T03:38:23.975Z,2.83
2018-12-16T03:44:18.973Z,3.72
2018-12-16T03:50:14.029Z,4.16
2018-12-16T03:56:08.959Z,3.44
2018-12-16T04:02:03.981Z,4.31
2018-12-16T04:07:59.007Z,4
2018-12-16T04:13:53.949Z,4.81
2018-12-16T04:19:48.958Z,5.9
2018-12-16T04:25:43.967Z,5.1
2018-12-16T04:31:38.955Z,5.6
2018-12-16T04:37:33.983Z,5.77
2018-12-16T04:43:28.998Z,5.87
2018-12-16T04:49:23.961Z,3.8
2018-12-16T04:55:19.006Z,5.44
2018-12-16T05:01:13.976Z,5.88
2018-12-16T05:07:08.968Z,5.26
2018-12-16T05:13:03.992Z,5.12
2018-12-16T05:18:58.989Z,5.41
2018-12-16T05:24:53.971Z,5.08
2018-12-16T05:30:49.023Z,5.37
2018-12-16T05:36:44.001Z,5.03
2018-12-16T05:42:38.962Z,4.6
2018-12-16T05:48:33.992Z,6.6
2018-12-16T05:54:29.023Z,7.54
2018-12-16T06:00:24.097Z,8.8
2018-12-16T06:06:18.966Z,8.57
2018-12-16T06:12:13.997Z,10.9
2018-12-16T06:18:09.028Z,8.88
2018-12-16T06:24:03.994Z,6.65
2018-12-16T06:29:59.008Z,6.67
2018-12-16T06:35:54.002Z,6.07
2018-12-16T06:41:49.010Z,5.52
2018-12-16T06:47:43.999Z,5.65
2018-12-16T06:53:39.035Z,4.84
2018-12-16T06:59:33.986Z,9.15
2018-12-16T07:05:28.983Z,5.92
2018-12-16T07:11:24.050Z,5.79
2018-12-16T07:17:19.014Z,7.78
2018-12-16T07:23:14.030Z,6.15
2018-12-16T07:29:09.002Z,6.67
2018-12-16T07:35:04.006Z,7.86
2018-12-16T07:40:59.004Z,7.22
2018-12-16T07:46:53.995Z,8.44
2018-12-16T07:52:49.027Z,9.04
2018-12-16T07:58:44.049Z,8.61
2018-12-16T08:04:39.043Z,8.34
2018-12-16T08:10:33.999Z,9.57
2018-12-16T08:16:29.006Z,12.94
2018-12-16T08:22:24.033Z,11.17
2018-12-16T08:28:19.013Z,9.98
2018-12-16T08:34:14.018Z,16.75
2018-12-16T08:40:09.008Z,10.51
2018-12-16T08:46:04.051Z,9.64
2018-12-16T08:51:58.997Z,8.52
2018-12-16T08:57:54.090Z,10.19
2018-12-16T09:03:49.026Z,10.85
2018-12-16T09:09:44.010Z,13.29
2018-12-16T09:15:39.007Z,9.68
2018-12-16T09:21:34.012Z,10.08
2018-12-16T09:27:29.017Z,11.44
2018-12-16T09:33:24.041Z,10.43
2018-12-16T09:39:19.048Z,12.7
2018-12-16T09:45:14.005Z,14.08
2018-12-16T09:51:09.048Z,15.94
2018-12-16T09:57:04.028Z,17.3
2018-12-16T10:02:59.026Z,18.13
2018-12-16T10:08:54.059Z,17.59
2018-12-16T10:14:49.057Z,15.09
2018-12-16T10:20:44.033Z,15.49
2018-12-16T10:26:39.038Z,20.52
2018-12-16T10:32:34.029Z,17.58
2018-12-16T10:38:29.074Z,17.81
2018-12-16T10:44:24.036Z,15.36
2018-12-16T10:50:19.052Z,15.7
2018-12-16T10:56:14.065Z,16.93
2018-12-16T11:02:09.097Z,19.01
2018-12-16T11:08:04.083Z,21.14
2018-12-16T11:13:59.063Z,15.09
2018-12-16T11:19:54.029Z,16.11
2018-12-16T11:25:49.069Z,16.39
2018-12-16T11:31:44.073Z,17.52
2018-12-16T11:37:39.082Z,21.92
2018-12-16T11:43:34.041Z,18.33
2018-12-16T11:49:29.127Z,15.42
2018-12-16T11:55:24.050Z,17.97
2018-12-16T12:01:19.049Z,21.1
2018-12-16T12:07:14.060Z,19.82
2018-12-16T12:13:09.063Z,17.52
2018-12-16T12:19:04.070Z,16.5
2018-12-16T12:24:59.091Z,24.34
2018-12-16T12:30:54.095Z,23.22
2018-12-16T12:36:49.059Z,21.7
2018-12-16T12:42:44.066Z,19.51
2018-12-16T12:48:39.070Z,18.49
2018-12-16T12:54:34.069Z,19.3
2018-12-16T13:00:29.163Z,20.5
2018-12-16T13:06:24.059Z,24.9
2018-12-16T13:12:19.085Z,27.88
2018-12-16T13:18:14.108Z,26.59
2018-12-16T13:24:09.068Z,28.4
2018-12-16T13:30:04.082Z,26.5
2018-12-16T13:35:59.116Z,22.67
2018-12-16T13:41:54.106Z,22.48
2018-12-16T13:47:49.066Z,22.91
2018-12-16T13:53:44.114Z,23.95
2018-12-16T13:59:39.115Z,23.5
2018-12-16T14:05:34.083Z,22.54
2018-12-16T14:11:29.086Z,27.01
2018-12-16T14:17:24.093Z,26.32
2018-12-16T14:23:19.145Z,25.79
2018-12-16T14:29:14.112Z,25.49
2018-12-16T14:35:09.094Z,26.55
2018-12-16T14:41:04.099Z,30.48
2018-12-16T14:46:59.140Z,32.8
2018-12-16T14:52:54.085Z,35.82
2018-12-16T14:58:49.095Z,33.4
2018-12-16T15:04:44.122Z,30.02
2018-12-16T15:10:39.086Z,27.74
2018-12-16T15:16:34.125Z,29.39
2018-12-16T15:22:29.086Z,35.34
2018-12-16T15:28:24.087Z,56.03
2018-12-16T15:34:19.162Z,42.21
2018-12-16T15:40:14.145Z,48.29
2018-12-16T15:52:04.101Z,36.44
2018-12-16T15:52:04.122Z,38.34
2018-12-16T15:57:59.096Z,42.38
2018-12-16T16:03:54.111Z,36.81
2018-12-16T16:09:49.110Z,35.87
2018-12-16T16:15:44.107Z,46.23
2018-12-16T16:21:39.118Z,56.07
2018-12-16T16:27:34.154Z,41.61
2018-12-16T16:33:29.134Z,41.69
2018-12-16T16:39:24.119Z,35.03
2018-12-16T16:45:19.105Z,26.92
2018-12-16T16:51:14.125Z,27.84
2018-12-16T16:57:09.182Z,27.35
2018-12-16T17:03:04.200Z,32.98
2018-12-16T17:08:59.130Z,38.97
2018-12-16T17:14:54.124Z,38.04
2018-12-16T17:20:49.155Z,26.2
2018-12-16T17:26:44.157Z,16.1
2018-12-16T17:32:39.133Z,16.27
2018-12-16T17:38:34.149Z,19.57
2018-12-16T17:44:29.162Z,21.95
2018-12-16T17:50:24.158Z,28.63
2018-12-16T17:56:19.145Z,31.77
2018-12-16T18:02:14.268Z,27.85
2018-12-16T18:08:09.148Z,31.89
2018-12-16T18:14:04.152Z,35.34
2018-12-16T18:19:59.163Z,33.1
2018-12-16T18:25:54.163Z,35.85
2018-12-16T18:31:49.201Z,36.8
2018-12-16T18:37:44.132Z,36.08
2018-12-16T18:43:39.192Z,37.83
2018-12-16T18:49:34.180Z,37.68
2018-12-16T18:55:29.179Z,34.55
2018-12-16T19:01:24.198Z,33.36
2018-12-16T19:07:19.190Z,33.98
2018-12-16T19:13:14.156Z,35.67
2018-12-16T19:19:09.145Z,35.24
2018-12-16T19:25:04.155Z,34.73
2018-12-16T19:30:59.154Z,35.91
2018-12-16T19:36:54.174Z,37.78
2018-12-16T19:42:49.159Z,36.7
2018-12-16T19:48:44.174Z,34.36
2018-12-16T19:54:39.178Z,38.56
2018-12-16T20:00:34.136Z,38.49
2018-12-16T20:06:29.186Z,39.38
2018-12-16T20:12:24.267Z,42.13
2018-12-16T20:18:19.180Z,42.12
2018-12-16T20:24:14.163Z,42.6
2018-12-16T20:30:09.179Z,38.21
2018-12-16T20:36:04.145Z,44.69
2018-12-16T20:41:59.177Z,49.25
2018-12-16T20:47:54.177Z,36.01
2018-12-16T20:53:49.163Z,39.73
2018-12-16T20:59:44.188Z,31.51
2018-12-16T21:05:39.183Z,33.57
2018-12-16T21:11:34.179Z,40.51
2018-12-16T21:17:29.153Z,38.98
2018-12-16T21:23:24.223Z,35.65
2018-12-16T21:29:19.169Z,31.59
2018-12-16T21:35:14.193Z,32.81
2018-12-16T21:41:09.201Z,34.22
2018-12-16T21:47:04.189Z,36.12
2018-12-16T21:52:59.193Z,39.86
2018-12-16T21:58:54.269Z,31.98
2018-12-16T22:04:49.175Z,28.93
2018-12-16T22:10:44.176Z,36.47
2018-12-16T22:16:39.238Z,27.66
2018-12-16T22:22:34.181Z,20.92
2018-12-16T22:28:29.242Z,15.52
2018-12-16T22:34:24.169Z,15.6
2018-12-16T22:40:19.206Z,12.74
2018-12-16T22:46:14.184Z,14.63
2018-12-16T22:52:09.205Z,14.24
2018-12-16T22:58:04.197Z,14.03
2018-12-16T23:03:59.198Z,13.61
2018-12-16T23:09:54.191Z,12.52
2018-12-16T23:15:49.245Z,11.77
2018-12-16T23:21:44.194Z,11.86
2018-12-16T23:27:39.202Z,16.98
2018-12-16T23:33:34.186Z,46.25
2018-12-16T23:39:29.220Z,16.46
2018-12-16T23:45:24.310Z,13.6
2018-12-16T23:51:19.193Z,11.61
2018-12-16T23:57:14.193Z,13.37
